sensor_id;sensor_type;location;lat;lon;timestamp;pressure;altitude;pressure_sealevel;temperature;humidity
61961;BME280;47923;42.506;24.192;2023-01-29T00:01:03;95533.41;;;-1.22;88.65
61961;BME280;47923;42.506;24.192;2023-01-29T00:03:29;95520.41;;;-1.47;88.87
61961;BME280;47923;42.506;24.192;2023-01-29T00:05:54;95452.13;;;-1.79;88.46
61961;BME280;47923;42.506;24.192;2023-01-29T00:08:20;95535.56;;;-1.24;88.45
61961;BME280;47923;42.506;24.192;2023-01-29T00:10:45;95525.47;;;-1.22;88.60
61961;BME280;47923;42.506;24.192;2023-01-29T00:13:10;95319.69;;;-2.56;88.44
61961;BME280;47923;42.506;24.192;2023-01-29T00:15:36;95419.66;;;-2.19;88.35
61961;BME280;47923;42.506;24.192;2023-01-29T00:18:02;95534.50;;;-1.23;87.77
61961;BME280;47923;42.506;24.192;2023-01-29T00:20:27;95454.66;;;-1.69;87.56
61961;BME280;47923;42.506;24.192;2023-01-29T00:22:53;95361.56;;;-2.34;87.10
61961;BME280;47923;42.506;24.192;2023-01-29T00:25:18;95437.91;;;-1.88;87.11
61961;BME280;47923;42.506;24.192;2023-01-29T00:27:44;95452.56;;;-1.72;87.50
61961;BME280;47923;42.506;24.192;2023-01-29T00:30:10;95386.22;;;-2.10;87.58
61961;BME280;47923;42.506;24.192;2023-01-29T00:32:41;95540.25;;;-1.16;87.34
61961;BME280;47923;42.506;24.192;2023-01-29T00:35:08;95302.84;;;-2.65;86.73
61961;BME280;47923;42.506;24.192;2023-01-29T00:37:33;95354.34;;;-2.29;86.95
61961;BME280;47923;42.506;24.192;2023-01-29T00:39:59;95539.69;;;-1.13;87.55
61961;BME280;47923;42.506;24.192;2023-01-29T00:42:24;95539.97;;;-1.14;87.24
61961;BME280;47923;42.506;24.192;2023-01-29T00:45:09;95391.97;;;-2.03;86.73
61961;BME280;47923;42.506;24.192;2023-01-29T00:47:35;95500.69;;;-1.36;86.77
61961;BME280;47923;42.506;24.192;2023-01-29T00:50:06;95537.53;;;-1.11;87.01
61961;BME280;47923;42.506;24.192;2023-01-29T00:52:32;95534.09;;;-1.11;86.47
61961;BME280;47923;42.506;24.192;2023-01-29T00:55:01;95544.69;;;-1.11;86.25
61961;BME280;47923;42.506;24.192;2023-01-29T00:57:28;95535.63;;;-1.05;85.88
61961;BME280;47923;42.506;24.192;2023-01-29T00:59:54;95459.22;;;-1.46;85.73
61961;BME280;47923;42.506;24.192;2023-01-29T01:02:20;95441.88;;;-1.62;85.48
61961;BME280;47923;42.506;24.192;2023-01-29T01:05:05;95509.91;;;-1.28;85.63
61961;BME280;47923;42.506;24.192;2023-01-29T01:07:38;95529.25;;;-1.04;85.38
61961;BME280;47923;42.506;24.192;2023-01-29T01:10:05;95525.81;;;-1.04;85.73
61961;BME280;47923;42.506;24.192;2023-01-29T01:12:48;95388.28;;;-2.07;85.87
61961;BME280;47923;42.506;24.192;2023-01-29T01:15:15;95368.47;;;-2.09;85.52
61961;BME280;47923;42.506;24.192;2023-01-29T01:17:40;95529.53;;;-1.05;85.60
61961;BME280;47923;42.506;24.192;2023-01-29T01:20:06;95289.28;;;-2.59;85.89
61961;BME280;47923;42.506;24.192;2023-01-29T01:22:34;95520.78;;;-1.06;85.74
61961;BME280;47923;42.506;24.192;2023-01-29T01:25:00;95385.59;;;-2.02;85.42
61961;BME280;47923;42.506;24.192;2023-01-29T01:27:25;95358.22;;;-2.16;85.81
61961;BME280;47923;42.506;24.192;2023-01-29T01:29:51;95452.88;;;-1.50;85.62
61961;BME280;47923;42.506;24.192;2023-01-29T01:32:16;95537.50;;;-1.05;85.85
61961;BME280;47923;42.506;24.192;2023-01-29T01:34:42;95312.44;;;-2.45;86.10
61961;BME280;47923;42.506;24.192;2023-01-29T01:37:09;95507.41;;;-1.20;86.53
61961;BME280;47923;42.506;24.192;2023-01-29T01:39:35;95403.16;;;-1.82;86.16
61961;BME280;47923;42.506;24.192;2023-01-29T01:42:00;95542.00;;;-1.06;86.52
61961;BME280;47923;42.506;24.192;2023-01-29T01:44:50;95531.91;;;-1.04;86.23
61961;BME280;47923;42.506;24.192;2023-01-29T01:47:18;95508.53;;;-1.26;86.14
61961;BME280;47923;42.506;24.192;2023-01-29T01:49:45;95328.50;;;-2.37;86.26
61961;BME280;47923;42.506;24.192;2023-01-29T01:52:12;95529.53;;;-1.05;86.37
61961;BME280;47923;42.506;24.192;2023-01-29T01:54:38;95477.13;;;-1.37;85.79
61961;BME280;47923;42.506;24.192;2023-01-29T01:57:12;95377.03;;;-2.17;86.40
61961;BME280;47923;42.506;24.192;2023-01-29T01:59:42;95504.09;;;-1.30;86.58
61961;BME280;47923;42.506;24.192;2023-01-29T02:02:11;95517.09;;;-1.34;86.81
61961;BME280;47923;42.506;24.192;2023-01-29T02:04:56;95544.16;;;-1.08;87.29
61961;BME280;47923;42.506;24.192;2023-01-29T02:07:46;95447.56;;;-1.74;87.58
61961;BME280;47923;42.506;24.192;2023-01-29T02:10:39;95542.34;;;-1.13;87.82
61961;BME280;47923;42.506;24.192;2023-01-29T02:13:06;95547.63;;;-1.13;88.18
61961;BME280;47923;42.506;24.192;2023-01-29T02:15:32;95365.22;;;-2.30;87.99
61961;BME280;47923;42.506;24.192;2023-01-29T02:17:58;95432.94;;;-1.95;88.41
61961;BME280;47923;42.506;24.192;2023-01-29T02:20:26;95544.81;;;-1.21;88.41
61961;BME280;47923;42.506;24.192;2023-01-29T02:23:19;95553.25;;;-1.43;88.90
61961;BME280;47923;42.506;24.192;2023-01-29T02:29:07;95567.38;;;-1.24;89.46
61961;BME280;47923;42.506;24.192;2023-01-29T02:37:54;95565.00;;;-1.25;89.80
61961;BME280;47923;42.506;24.192;2023-01-29T02:41:09;95575.59;;;-1.25;90.22
61961;BME280;47923;42.506;24.192;2023-01-29T02:48:58;95574.34;;;-1.33;90.63
61961;BME280;47923;42.506;24.192;2023-01-29T02:51:34;95450.88;;;-2.21;90.90
61961;BME280;47923;42.506;24.192;2023-01-29T02:54:13;95473.25;;;-2.03;90.67
61961;BME280;47923;42.506;24.192;2023-01-29T02:56:56;95574.91;;;-1.36;90.60
61961;BME280;47923;42.506;24.192;2023-01-29T02:59:43;95389.50;;;-2.57;90.52
61961;BME280;47923;42.506;24.192;2023-01-29T03:02:15;95427.97;;;-2.36;90.97
61961;BME280;47923;42.506;24.192;2023-01-29T03:04:48;95581.28;;;-1.37;91.23
61961;BME280;47923;42.506;24.192;2023-01-29T03:07:20;95574.94;;;-1.41;91.16
61961;BME280;47923;42.506;24.192;2023-01-29T03:10:28;95574.94;;;-1.41;91.48
61961;BME280;47923;42.506;24.192;2023-01-29T03:13:02;95342.94;;;-2.87;91.47
61961;BME280;47923;42.506;24.192;2023-01-29T03:15:34;95578.69;;;-1.42;91.81
61961;BME280;47923;42.506;24.192;2023-01-29T03:18:18;95583.97;;;-1.42;91.36
61961;BME280;47923;42.506;24.192;2023-01-29T03:20:51;95519.44;;;-1.85;91.93
61961;BME280;47923;42.506;24.192;2023-01-29T03:23:22;95589.06;;;-1.46;91.72
61961;BME280;47923;42.506;24.192;2023-01-29T03:25:57;95609.19;;;-1.45;91.94
61961;BME280;47923;42.506;24.192;2023-01-29T03:28:44;95581.66;;;-1.49;91.63
61961;BME280;47923;42.506;24.192;2023-01-29T03:31:30;95458.34;;;-2.28;91.89
61961;BME280;47923;42.506;24.192;2023-01-29T03:34:18;95541.38;;;-1.80;92.17
61961;BME280;47923;42.506;24.192;2023-01-29T03:37:01;95606.53;;;-1.45;92.18
61961;BME280;47923;42.506;24.192;2023-01-29T03:39:28;95600.44;;;-1.45;91.68
61961;BME280;47923;42.506;24.192;2023-01-29T03:47:29;95611.84;;;-1.45;92.04
61961;BME280;47923;42.506;24.192;2023-01-29T03:50:06;95597.00;;;-1.46;91.88
61961;BME280;47923;42.506;24.192;2023-01-29T04:00:44;95533.56;;;-1.95;91.50
61961;BME280;47923;42.506;24.192;2023-01-29T04:03:30;95338.91;;;-3.14;91.54
61961;BME280;47923;42.506;24.192;2023-01-29T04:06:11;95604.94;;;-1.46;91.79
61961;BME280;47923;42.506;24.192;2023-01-29T04:08:46;95537.09;;;-2.10;92.16
61961;BME280;47923;42.506;24.192;2023-01-29T04:11:15;95330.28;;;-3.29;91.80
61961;BME280;47923;42.506;24.192;2023-01-29T04:13:42;95447.94;;;-2.48;92.02
61961;BME280;47923;42.506;24.192;2023-01-29T04:16:13;95537.56;;;-1.98;92.42
61961;BME280;47923;42.506;24.192;2023-01-29T04:18:43;95610.50;;;-1.47;92.70
61961;BME280;47923;42.506;24.192;2023-01-29T04:21:09;95618.47;;;-1.47;92.45
61961;BME280;47923;42.506;24.192;2023-01-29T04:23:35;95494.88;;;-2.30;92.57
61961;BME280;47923;42.506;24.192;2023-01-29T04:29:14;95620.31;;;-1.48;92.66
61961;BME280;47923;42.506;24.192;2023-01-29T04:32:09;95557.59;;;-1.86;92.59
61961;BME280;47923;42.506;24.192;2023-01-29T04:35:00;95622.97;;;-1.48;92.89
61961;BME280;47923;42.506;24.192;2023-01-29T04:37:43;95622.19;;;-1.48;92.47
61961;BME280;47923;42.506;24.192;2023-01-29T04:40:17;95630.41;;;-1.50;93.09
61961;BME280;47923;42.506;24.192;2023-01-29T04:45:30;95626.97;;;-1.50;92.74
61961;BME280;47923;42.506;24.192;2023-01-29T04:50:39;95636.28;;;-1.53;93.23
61961;BME280;47923;42.506;24.192;2023-01-29T04:53:17;95368.28;;;-3.25;93.03
61961;BME280;47923;42.506;24.192;2023-01-29T04:55:57;95610.25;;;-1.80;93.04
61961;BME280;47923;42.506;24.192;2023-01-29T05:01:04;95632.56;;;-1.52;92.63
61961;BME280;47923;42.506;24.192;2023-01-29T05:03:31;95639.16;;;-1.49;92.33
61961;BME280;47923;42.506;24.192;2023-01-29T05:05:59;95635.72;;;-1.50;92.34
61961;BME280;47923;42.506;24.192;2023-01-29T05:08:27;95638.09;;;-1.48;92.77
61961;BME280;47923;42.506;24.192;2023-01-29T05:10:56;95494.75;;;-2.49;92.57
61961;BME280;47923;42.506;24.192;2023-01-29T05:13:23;95648.59;;;-1.72;92.73
61961;BME280;47923;42.506;24.192;2023-01-29T05:16:09;95654.78;;;-1.48;93.13
61961;BME280;47923;42.506;24.192;2023-01-29T05:18:38;95620.50;;;-1.68;93.12
61961;BME280;47923;42.506;24.192;2023-01-29T05:21:07;95654.50;;;-1.46;92.99
61961;BME280;47923;42.506;24.192;2023-01-29T05:23:33;95491.84;;;-2.47;92.90
61961;BME280;47923;42.506;24.192;2023-01-29T05:25:58;95482.16;;;-2.62;92.86
61961;BME280;47923;42.506;24.192;2023-01-29T05:28:23;95525.38;;;-2.38;92.34
61961;BME280;47923;42.506;24.192;2023-01-29T05:30:51;95687.09;;;-1.46;92.57
61961;BME280;47923;42.506;24.192;2023-01-29T05:33:22;95509.53;;;-2.43;92.37
61961;BME280;47923;42.506;24.192;2023-01-29T05:35:49;95344.19;;;-3.63;91.74
61961;BME280;47923;42.506;24.192;2023-01-29T05:38:16;95671.72;;;-1.44;92.06
61961;BME280;47923;42.506;24.192;2023-01-29T05:40:42;95671.44;;;-1.42;91.45
61961;BME280;47923;42.506;24.192;2023-01-29T05:43:19;95678.31;;;-1.41;91.95
61961;BME280;47923;42.506;24.192;2023-01-29T05:45:56;95549.59;;;-2.20;91.72
61961;BME280;47923;42.506;24.192;2023-01-29T05:48:22;95642.50;;;-1.73;91.47
61961;BME280;47923;42.506;24.192;2023-01-29T05:50:48;95497.50;;;-2.64;91.18
61961;BME280;47923;42.506;24.192;2023-01-29T05:53:13;95577.38;;;-2.13;91.23
61961;BME280;47923;42.506;24.192;2023-01-29T05:55:38;95691.81;;;-1.37;91.23
61961;BME280;47923;42.506;24.192;2023-01-29T05:58:04;95667.00;;;-1.52;90.91
61961;BME280;47923;42.506;24.192;2023-01-29T06:00:30;95685.56;;;-1.52;90.31
61961;BME280;47923;42.506;24.192;2023-01-29T06:02:57;95722.47;;;-1.26;90.25
61961;BME280;47923;42.506;24.192;2023-01-29T06:05:22;95706.03;;;-1.23;90.21
61961;BME280;47923;42.506;24.192;2023-01-29T06:07:48;95719.19;;;-1.13;89.62
61961;BME280;47923;42.506;24.192;2023-01-29T06:10:15;95744.88;;;-1.08;89.53
61961;BME280;47923;42.506;24.192;2023-01-29T06:12:42;95715.41;;;-1.02;88.91
61961;BME280;47923;42.506;24.192;2023-01-29T06:15:08;95455.44;;;-2.66;88.74
61961;BME280;47923;42.506;24.192;2023-01-29T06:17:34;95717.38;;;-0.89;88.51
61961;BME280;47923;42.506;24.192;2023-01-29T06:19:59;95313.81;;;-3.66;87.86
61961;BME280;47923;42.506;24.192;2023-01-29T06:22:25;95733.75;;;-0.76;87.89
61961;BME280;47923;42.506;24.192;2023-01-29T06:24:50;95736.06;;;-0.70;87.80
61961;BME280;47923;42.506;24.192;2023-01-29T06:27:15;95664.63;;;-1.19;87.06
61961;BME280;47923;42.506;24.192;2023-01-29T06:29:41;95509.06;;;-2.11;86.36
61961;BME280;47923;42.506;24.192;2023-01-29T06:32:06;95656.38;;;-1.18;86.32
61961;BME280;47923;42.506;24.192;2023-01-29T06:34:32;95767.59;;;-0.63;86.19
61961;BME280;47923;42.506;24.192;2023-01-29T06:36:57;95665.25;;;-1.32;86.19
61961;BME280;47923;42.506;24.192;2023-01-29T06:39:22;95760.16;;;-0.66;86.36
61961;BME280;47923;42.506;24.192;2023-01-29T06:41:48;95749.53;;;-0.61;86.36
61961;BME280;47923;42.506;24.192;2023-01-29T06:44:13;95560.22;;;-1.86;86.35
61961;BME280;47923;42.506;24.192;2023-01-29T06:46:39;95752.63;;;-0.54;86.74
61961;BME280;47923;42.506;24.192;2023-01-29T06:49:04;95759.53;;;-0.53;86.82
61961;BME280;47923;42.506;24.192;2023-01-29T06:51:30;95460.09;;;-2.47;86.74
61961;BME280;47923;42.506;24.192;2023-01-29T06:53:55;95776.69;;;-0.45;86.53
61961;BME280;47923;42.506;24.192;2023-01-29T06:56:21;95769.81;;;-0.46;86.70
61961;BME280;47923;42.506;24.192;2023-01-29T06:58:47;95771.94;;;-0.43;86.79
61961;BME280;47923;42.506;24.192;2023-01-29T07:01:13;95770.59;;;-0.46;85.68
61961;BME280;47923;42.506;24.192;2023-01-29T07:03:38;95774.50;;;-0.38;86.33
61961;BME280;47923;42.506;24.192;2023-01-29T07:06:06;95539.13;;;-1.97;86.10
61961;BME280;47923;42.506;24.192;2023-01-29T07:08:35;95780.53;;;-0.28;86.19
61961;BME280;47923;42.506;24.192;2023-01-29T07:11:01;95359.34;;;-2.90;85.49
61961;BME280;47923;42.506;24.192;2023-01-29T07:13:28;95357.34;;;-3.09;85.40
61961;BME280;47923;42.506;24.192;2023-01-29T07:15:53;95762.84;;;-0.13;84.59
61961;BME280;47923;42.506;24.192;2023-01-29T07:18:18;95340.75;;;-2.80;83.87
61961;BME280;47923;42.506;24.192;2023-01-29T07:20:44;95714.28;;;-0.67;84.37
61961;BME280;47923;42.506;24.192;2023-01-29T07:23:11;95774.63;;;0.47;84.57
61961;BME280;47923;42.506;24.192;2023-01-29T07:25:37;95772.41;;;0.54;82.76
61961;BME280;47923;42.506;24.192;2023-01-29T07:28:03;95682.84;;;0.12;81.52
61961;BME280;47923;42.506;24.192;2023-01-29T07:30:29;95782.53;;;0.90;81.88
61961;BME280;47923;42.506;24.192;2023-01-29T07:32:54;95773.91;;;0.98;80.90
61961;BME280;47923;42.506;24.192;2023-01-29T07:35:20;95596.03;;;-0.11;79.87
61961;BME280;47923;42.506;24.192;2023-01-29T07:37:49;95777.19;;;1.28;79.72
61961;BME280;47923;42.506;24.192;2023-01-29T07:40:15;95778.53;;;1.58;79.05
61961;BME280;47923;42.506;24.192;2023-01-29T07:42:40;95780.16;;;1.73;77.79
61961;BME280;47923;42.506;24.192;2023-01-29T07:45:08;95781.59;;;1.51;77.27
61961;BME280;47923;42.506;24.192;2023-01-29T07:47:34;95784.59;;;1.77;77.39
61961;BME280;47923;42.506;24.192;2023-01-29T07:49:59;95543.97;;;0.25;76.79
61961;BME280;47923;42.506;24.192;2023-01-29T07:52:25;95719.44;;;1.42;76.43
61961;BME280;47923;42.506;24.192;2023-01-29T07:54:51;95794.47;;;1.77;75.57
61961;BME280;47923;42.506;24.192;2023-01-29T07:57:16;95624.09;;;0.51;76.04
61961;BME280;47923;42.506;24.192;2023-01-29T07:59:41;95799.13;;;1.20;77.30
61961;BME280;47923;42.506;24.192;2023-01-29T08:02:08;95430.94;;;-1.07;77.46
61961;BME280;47923;42.506;24.192;2023-01-29T08:04:34;95850.34;;;1.30;77.97
61961;BME280;47923;42.506;24.192;2023-01-29T08:06:59;95822.63;;;1.31;78.06
61961;BME280;47923;42.506;24.192;2023-01-29T08:09:24;95810.03;;;1.37;78.51
61961;BME280;47923;42.506;24.192;2023-01-29T08:11:50;95540.69;;;-0.42;78.00
61961;BME280;47923;42.506;24.192;2023-01-29T08:14:15;95833.69;;;1.57;78.80
61961;BME280;47923;42.506;24.192;2023-01-29T08:16:41;95814.06;;;1.67;77.63
61961;BME280;47923;42.506;24.192;2023-01-29T08:19:06;95816.38;;;1.87;77.52
61961;BME280;47923;42.506;24.192;2023-01-29T08:21:32;95816.19;;;1.98;75.91
61961;BME280;47923;42.506;24.192;2023-01-29T08:23:57;95114.09;;;-2.51;75.05
61961;BME280;47923;42.506;24.192;2023-01-29T08:26:22;95801.41;;;2.05;74.24
61961;BME280;47923;42.506;24.192;2023-01-29T08:28:50;95809.91;;;2.21;73.76
61961;BME280;47923;42.506;24.192;2023-01-29T08:31:16;95815.63;;;2.56;73.38
61961;BME280;47923;42.506;24.192;2023-01-29T08:33:42;95808.75;;;2.91;71.01
61961;BME280;47923;42.506;24.192;2023-01-29T08:36:08;95816.63;;;3.77;68.67
61961;BME280;47923;42.506;24.192;2023-01-29T08:38:33;95753.19;;;4.39;65.52
61961;BME280;47923;42.506;24.192;2023-01-29T08:40:59;95806.47;;;5.88;61.18
61961;BME280;47923;42.506;24.192;2023-01-29T08:43:24;95817.13;;;6.90;56.34
61961;BME280;47923;42.506;24.192;2023-01-29T08:45:50;95655.47;;;6.76;52.70
61961;BME280;47923;42.506;24.192;2023-01-29T08:48:15;95718.53;;;7.90;51.16
61961;BME280;47923;42.506;24.192;2023-01-29T08:50:41;95751.41;;;8.94;48.75
61961;BME280;47923;42.506;24.192;2023-01-29T08:53:08;95548.34;;;8.58;47.18
61961;BME280;47923;42.506;24.192;2023-01-29T08:55:40;95814.50;;;9.85;45.68
61961;BME280;47923;42.506;24.192;2023-01-29T08:58:07;95818.00;;;9.46;46.70
61961;BME280;47923;42.506;24.192;2023-01-29T09:00:34;95825.16;;;9.01;48.93
61961;BME280;47923;42.506;24.192;2023-01-29T09:02:59;95811.31;;;9.27;47.77
61961;BME280;47923;42.506;24.192;2023-01-29T09:05:26;95834.66;;;9.48;46.80
61961;BME280;47923;42.506;24.192;2023-01-29T09:07:52;95754.88;;;8.94;46.72
61961;BME280;47923;42.506;24.192;2023-01-29T09:10:18;95825.16;;;9.01;48.82
61961;BME280;47923;42.506;24.192;2023-01-29T09:12:43;95767.72;;;8.73;49.00
61961;BME280;47923;42.506;24.192;2023-01-29T09:15:09;95786.56;;;8.73;47.22
61961;BME280;47923;42.506;24.192;2023-01-29T09:17:35;95825.25;;;9.17;47.31
61961;BME280;47923;42.506;24.192;2023-01-29T09:20:00;95736.31;;;8.40;47.31
61961;BME280;47923;42.506;24.192;2023-01-29T09:22:26;95822.94;;;8.79;47.35
61961;BME280;47923;42.506;24.192;2023-01-29T09:24:51;95778.19;;;9.27;46.80
61961;BME280;47923;42.506;24.192;2023-01-29T09:27:16;95816.19;;;10.06;44.26
61961;BME280;47923;42.506;24.192;2023-01-29T09:29:42;95808.78;;;10.46;45.20
61961;BME280;47923;42.506;24.192;2023-01-29T09:32:07;95617.34;;;9.62;44.08
61961;BME280;47923;42.506;24.192;2023-01-29T09:34:33;95803.03;;;11.15;43.59
61961;BME280;47923;42.506;24.192;2023-01-29T09:36:59;95668.75;;;10.48;42.50
61961;BME280;47923;42.506;24.192;2023-01-29T09:39:27;95733.53;;;10.80;42.78
61961;BME280;47923;42.506;24.192;2023-01-29T09:47:23;95791.19;;;9.65;44.93
61961;BME280;47923;42.506;24.192;2023-01-29T09:49:52;95660.81;;;8.37;45.64
61961;BME280;47923;42.506;24.192;2023-01-29T09:58:19;95797.38;;;8.03;48.41
61961;BME280;47923;42.506;24.192;2023-01-29T10:01:11;95789.84;;;7.96;49.03
61961;BME280;47923;42.506;24.192;2023-01-29T10:12:12;95771.19;;;8.37;48.45
61961;BME280;47923;42.506;24.192;2023-01-29T10:17:36;95770.13;;;9.02;48.02
61961;BME280;47923;42.506;24.192;2023-01-29T10:25:19;95745.97;;;9.74;45.52
61961;BME280;47923;42.506;24.192;2023-01-29T10:27:57;95681.59;;;9.17;45.29
61961;BME280;47923;42.506;24.192;2023-01-29T10:30:30;95742.53;;;9.61;45.31
61961;BME280;47923;42.506;24.192;2023-01-29T10:32:58;95745.34;;;10.24;43.27
61961;BME280;47923;42.506;24.192;2023-01-29T10:35:32;95716.41;;;10.92;41.37
61961;BME280;47923;42.506;24.192;2023-01-29T10:38:11;95445.34;;;9.40;41.09
61961;BME280;47923;42.506;24.192;2023-01-29T10:40:45;95737.47;;;11.79;41.30
61961;BME280;47923;42.506;24.192;2023-01-29T10:46:25;95739.84;;;11.23;41.01
61961;BME280;47923;42.506;24.192;2023-01-29T11:02:34;95728.44;;;10.59;41.93
61961;BME280;47923;42.506;24.192;2023-01-29T11:05:00;95724.91;;;10.74;41.44
61961;BME280;47923;42.506;24.192;2023-01-29T11:07:26;95538.94;;;9.55;41.27
61961;BME280;47923;42.506;24.192;2023-01-29T11:10:10;95724.34;;;10.85;39.91
61961;BME280;47923;42.506;24.192;2023-01-29T11:12:37;95717.66;;;10.43;41.50
61961;BME280;47923;42.506;24.192;2023-01-29T11:15:20;95711.88;;;10.13;41.80
61961;BME280;47923;42.506;24.192;2023-01-29T11:18:10;95718.06;;;10.14;42.50
61961;BME280;47923;42.506;24.192;2023-01-29T11:20:39;95702.97;;;9.97;42.96
61961;BME280;47923;42.506;24.192;2023-01-29T11:23:04;95655.34;;;9.57;43.50
61961;BME280;47923;42.506;24.192;2023-01-29T11:25:30;95634.84;;;8.69;44.19
61961;BME280;47923;42.506;24.192;2023-01-29T11:28:00;95716.81;;;9.80;45.29
61961;BME280;47923;42.506;24.192;2023-01-29T11:33:19;95702.19;;;9.96;43.26
61961;BME280;47923;42.506;24.192;2023-01-29T11:35:46;95623.34;;;9.72;42.58
61961;BME280;47923;42.506;24.192;2023-01-29T11:40:41;95711.84;;;9.82;44.43
61961;BME280;47923;42.506;24.192;2023-01-29T11:45:52;95708.22;;;10.06;43.08
61961;BME280;47923;42.506;24.192;2023-01-29T11:48:21;95611.47;;;8.73;43.86
61961;BME280;47923;42.506;24.192;2023-01-29T11:50:56;95703.00;;;8.45;49.95
61961;BME280;47923;42.506;24.192;2023-01-29T11:53:44;95587.50;;;7.42;47.43
61961;BME280;47923;42.506;24.192;2023-01-29T11:56:31;95701.06;;;8.33;47.83
61961;BME280;47923;42.506;24.192;2023-01-29T11:58:58;95698.59;;;8.77;49.39
61961;BME280;47923;42.506;24.192;2023-01-29T12:01:37;95714.72;;;8.89;45.28
61961;BME280;47923;42.506;24.192;2023-01-29T12:04:24;95683.19;;;8.90;46.54
61961;BME280;47923;42.506;24.192;2023-01-29T12:06:51;95455.13;;;7.57;45.23
61961;BME280;47923;42.506;24.192;2023-01-29T12:09:23;95678.94;;;8.76;46.39
61961;BME280;47923;42.506;24.192;2023-01-29T12:11:51;95644.09;;;7.82;45.86
61961;BME280;47923;42.506;24.192;2023-01-29T12:14:32;95680.88;;;8.51;46.92
61961;BME280;47923;42.506;24.192;2023-01-29T12:17:12;95686.00;;;7.71;48.73
61961;BME280;47923;42.506;24.192;2023-01-29T12:19:45;95681.50;;;7.51;50.79
61961;BME280;47923;42.506;24.192;2023-01-29T12:22:18;95681.78;;;6.83;50.65
61961;BME280;47923;42.506;24.192;2023-01-29T12:24:58;95679.44;;;6.31;52.53
61961;BME280;47923;42.506;24.192;2023-01-29T12:27:46;95690.63;;;6.12;55.02
61961;BME280;47923;42.506;24.192;2023-01-29T12:33:25;95684.88;;;5.93;56.84
61961;BME280;47923;42.506;24.192;2023-01-29T12:36:01;95666.81;;;6.02;55.42
61961;BME280;47923;42.506;24.192;2023-01-29T12:38:31;95113.59;;;2.50;54.30
61961;BME280;47923;42.506;24.192;2023-01-29T12:41:06;95556.94;;;5.25;55.14
61961;BME280;47923;42.506;24.192;2023-01-29T12:46:46;95651.94;;;5.28;58.54
61961;BME280;47923;42.506;24.192;2023-01-29T12:49:18;95469.97;;;4.29;57.95
61961;BME280;47923;42.506;24.192;2023-01-29T12:52:03;95686.84;;;5.66;59.93
61961;BME280;47923;42.506;24.192;2023-01-29T12:54:47;95524.81;;;4.70;57.00
61961;BME280;47923;42.506;24.192;2023-01-29T12:57:41;95591.13;;;4.38;59.47
61961;BME280;47923;42.506;24.192;2023-01-29T13:00:21;95529.91;;;3.68;60.39
61961;BME280;47923;42.506;24.192;2023-01-29T13:02:59;95696.72;;;4.76;61.28
61961;BME280;47923;42.506;24.192;2023-01-29T13:08:15;95696.84;;;4.27;63.37
61961;BME280;47923;42.506;24.192;2023-01-29T13:10:48;95491.78;;;2.57;64.38
61961;BME280;47923;42.506;24.192;2023-01-29T13:15:54;95592.06;;;3.11;65.27
61961;BME280;47923;42.506;24.192;2023-01-29T13:21:23;95696.28;;;3.59;65.48
61961;BME280;47923;42.506;24.192;2023-01-29T13:23:52;95675.00;;;3.15;64.86
61961;BME280;47923;42.506;24.192;2023-01-29T13:26:20;95698.66;;;3.08;66.91
61961;BME280;47923;42.506;24.192;2023-01-29T13:28:47;95700.91;;;2.92;67.49
61961;BME280;47923;42.506;24.192;2023-01-29T13:31:26;95498.06;;;1.49;68.28
61961;BME280;47923;42.506;24.192;2023-01-29T13:34:16;95703.25;;;2.71;68.89
61961;BME280;47923;42.506;24.192;2023-01-29T13:36:45;95377.53;;;0.43;69.62
61961;BME280;47923;42.506;24.192;2023-01-29T13:39:48;95547.47;;;1.55;70.42
61961;BME280;47923;42.506;24.192;2023-01-29T13:43:02;95689.63;;;2.36;70.62
61961;BME280;47923;42.506;24.192;2023-01-29T13:45:05;95709.22;;;2.54;70.12
61961;BME280;47923;42.506;24.192;2023-01-29T13:47:35;95680.06;;;2.35;70.71
61961;BME280;47923;42.506;24.192;2023-01-29T13:50:09;95711.59;;;2.56;70.53
61961;BME280;47923;42.506;24.192;2023-01-29T13:52:56;95715.59;;;2.44;71.02
61961;BME280;47923;42.506;24.192;2023-01-29T13:55:44;95697.72;;;2.31;70.63
61961;BME280;47923;42.506;24.192;2023-01-29T14:00:58;95709.38;;;2.35;71.66
61961;BME280;47923;42.506;24.192;2023-01-29T14:05:57;95709.81;;;2.15;71.71
61961;BME280;47923;42.506;24.192;2023-01-29T14:08:43;95444.19;;;0.33;71.96
61961;BME280;47923;42.506;24.192;2023-01-29T14:13:46;95553.94;;;0.66;73.17
61961;BME280;47923;42.506;24.192;2023-01-29T14:18:56;95459.06;;;0.02;73.94
61961;BME280;47923;42.506;24.192;2023-01-29T14:21:26;95719.66;;;1.59;74.36
61961;BME280;47923;42.506;24.192;2023-01-29T14:24:10;95654.78;;;1.09;74.86
61961;BME280;47923;42.506;24.192;2023-01-29T14:26:44;95443.13;;;-0.31;75.54
61961;BME280;47923;42.506;24.192;2023-01-29T14:29:19;95367.06;;;-0.92;75.25
61961;BME280;47923;42.506;24.192;2023-01-29T14:34:30;95730.75;;;1.34;75.56
61961;BME280;47923;42.506;24.192;2023-01-29T14:37:21;95541.41;;;0.02;75.47
61961;BME280;47923;42.506;24.192;2023-01-29T14:56:09;95623.81;;;-0.04;76.92
61961;BME280;47923;42.506;24.192;2023-01-29T15:03:45;95613.44;;;-0.43;78.31
61961;BME280;47923;42.506;24.192;2023-01-29T15:06:27;95720.97;;;0.21;78.27
61961;BME280;47923;42.506;24.192;2023-01-29T15:09:45;95702.22;;;-0.06;78.50
61961;BME280;47923;42.506;24.192;2023-01-29T15:12:02;95754.41;;;0.27;78.69
61961;BME280;47923;42.506;24.192;2023-01-29T15:14:35;95678.06;;;-0.29;79.56
61961;BME280;47923;42.506;24.192;2023-01-29T15:19:40;95759.53;;;0.00;80.71
61961;BME280;47923;42.506;24.192;2023-01-29T15:22:22;95520.22;;;-1.56;80.43
61961;BME280;47923;42.506;24.192;2023-01-29T15:25:12;95759.88;;;-0.07;80.62
61961;BME280;47923;42.506;24.192;2023-01-29T15:27:42;95659.00;;;-0.84;81.63
61961;BME280;47923;42.506;24.192;2023-01-29T15:30:24;95756.91;;;-0.29;83.56
61961;BME280;47923;42.506;24.192;2023-01-29T15:32:51;95765.25;;;-0.41;83.54
61961;BME280;47923;42.506;24.192;2023-01-29T15:35:27;95768.03;;;-0.51;84.44
61961;BME280;47923;42.506;24.192;2023-01-29T15:38:02;95491.25;;;-2.39;85.01
61961;BME280;47923;42.506;24.192;2023-01-29T15:40:28;95510.06;;;-2.41;85.36